Bailey, North Carolina
Current Conditions -  °F | °C
As of 3:30 AM on Tuesday 27 Jan 2015 (Local Time) from KRWI Reporting Station
Overcast Overcast  
Wind Chill: 28°   Ceiling: 4200
Heat Index: 37°   Visibility: 10mi
Dew Point: 30°   Wind: 14mph
Humidity: 76%   Direction: 350°N
Pressure: 29.7"   Gusts: NA
Location:  35.78°N, 78.12°W
Report Text: KRWI 270830Z AUTO 35012KT 10SM SCT020 BKN042 OVC070 03/M01 A2970 RMK AO2 T00281011
Loading
Personal Weather Stations






























Interactive Weather Map New forecast layout! Learn more

10-Day Weather Forecast

Advertisements
Track Severe Weather on mobile